Courtland, MS

11:05 PM CDT on August 22, 2014 (GMT -0500)
Tunica | Change Station
CLOSE
Current Station
Airport
Location: Tunica,
Elevation: 194 ft
Nearby Weather Stations

Elev 194 ft 34.68 °N, 90.35 °W | Updated 10 minutes ago

Clear
Clear
79 °F
Feels Like 79 °F
N
4
Wind Variable Wind from SW

Today
High -- | Low -- °F
--% Chance of Precip.
Yesterday
High -- | Low -- °F
Precip. -- in
6:26 AM 7:39 PM
Waning Crescent, 5% visible
Pressure 30.01 in
Visibility 10.0 miles
Clouds Clear
Dew Point 73 °F
Humidity 83%
Rainfall 0.00 in
Snow Depth Not available.
UV 0 out of 12
Pollen 9.50 out of 12
Air Quality Not available.
Flu Activity Not available.
METAR KUTA 230355Z AUTO 22003KT 10SM CLR 26/23 A3001 RMK AO2

More Conditions Fewer Conditions

Pressure 30.01 in
Visibility 10.0 miles
Clouds Clear
Dew Point 73 °F
Humidity 83%
Rainfall 0.00 in
Snow Depth Not available.
UV 0 out of 12
Pollen 9.50 out of 12
Air Quality Not available.
Flu Activity Not available.
METAR KUTA 230355Z AUTO 22003KT 10SM CLR 26/23 A3001 RMK AO2

More Conditions Fewer Conditions

10-Day Weather Forecast

Almanac

Astronomy

Aug. 22, 2014 Rise Set
Actual Time 6:26 AM CDT 7:39 PM CDT
Civil Twilight 6:00 AM CDT 8:05 PM CDT
Nautical Twilight 5:29 AM CDT 8:36 PM CDT
Astronomical Twilight 4:57 AM CDT 9:08 PM CDT
Moon 3:52 AM CDT (8/22) 5:45 PM CDT (8/22)
Length of Visible Light 14h 04m
Length of Day
13h 12m
Tomorrow will be 1m 57s shorter.
Waning Crescent, 5% of the Moon is Illuminated
Aug 23
Waning Crescent
Aug 25
New
Sep 2
First Quarter
Sep 8
Full
Sep 15
Last Quarter

Today's Extremes

State Highs State Lows

Community

WunderPhotos

Upload Photos

1,746,351 photos uploaded!

WunderBlogs® & News

Nearby

Snow Depth

Station Depth Elevation
No new snow has been reported.

Earthquake Activity

City Distance Mag. Time & Date
No recent earthquake activity has been reported nearby.
Minimum magnitude displayed is 2.5.

Coastal Water Temperatures

Place Temperature
No Stations Reporting

Nearby Weather Stations